sensor_id;sensor_type;location;lat;lon;timestamp;P1;durP1;ratioP1;P2;durP2;ratioP2
1140;SDS011;559;48.628;8.924;2023-04-07T00:00:56;197.38;;;187.50;;
1140;SDS011;559;48.628;8.924;2023-04-07T00:03:24;199.43;;;189.73;;
1140;SDS011;559;48.628;8.924;2023-04-07T00:05:51;198.95;;;189.32;;
1140;SDS011;559;48.628;8.924;2023-04-07T00:08:18;195.43;;;185.80;;
1140;SDS011;559;48.628;8.924;2023-04-07T00:10:47;190.60;;;181.25;;
1140;SDS011;559;48.628;8.924;2023-04-07T00:13:14;202.55;;;192.90;;
1140;SDS011;559;48.628;8.924;2023-04-07T00:15:40;197.20;;;187.90;;
1140;SDS011;559;48.628;8.924;2023-04-07T00:18:07;196.15;;;186.45;;
1140;SDS011;559;48.628;8.924;2023-04-07T00:20:33;193.98;;;184.57;;
1140;SDS011;559;48.628;8.924;2023-04-07T00:23:00;182.13;;;172.73;;
1140;SDS011;559;48.628;8.924;2023-04-07T00:25:27;194.35;;;185.00;;
1140;SDS011;559;48.628;8.924;2023-04-07T00:27:55;189.95;;;180.95;;
1140;SDS011;559;48.628;8.924;2023-04-07T00:30:24;184.85;;;175.95;;
1140;SDS011;559;48.628;8.924;2023-04-07T00:32:50;190.52;;;181.20;;
1140;SDS011;559;48.628;8.924;2023-04-07T00:35:20;184.40;;;175.48;;
1140;SDS011;559;48.628;8.924;2023-04-07T00:37:50;183.88;;;174.98;;
1140;SDS011;559;48.628;8.924;2023-04-07T00:40:16;186.02;;;176.65;;
1140;SDS011;559;48.628;8.924;2023-04-07T00:42:46;185.88;;;177.07;;
1140;SDS011;559;48.628;8.924;2023-04-07T00:45:14;177.05;;;168.52;;
1140;SDS011;559;48.628;8.924;2023-04-07T00:47:40;183.00;;;174.30;;
1140;SDS011;559;48.628;8.924;2023-04-07T00:50:08;184.45;;;175.73;;
1140;SDS011;559;48.628;8.924;2023-04-07T00:52:38;182.70;;;174.18;;
1140;SDS011;559;48.628;8.924;2023-04-07T00:55:05;184.32;;;175.52;;
1140;SDS011;559;48.628;8.924;2023-04-07T00:57:38;188.10;;;179.40;;
1140;SDS011;559;48.628;8.924;2023-04-07T01:00:06;182.65;;;173.85;;
1140;SDS011;559;48.628;8.924;2023-04-07T01:02:42;179.82;;;171.38;;
1140;SDS011;559;48.628;8.924;2023-04-07T01:05:12;186.25;;;177.55;;
1140;SDS011;559;48.628;8.924;2023-04-07T01:07:43;190.90;;;181.80;;
1140;SDS011;559;48.628;8.924;2023-04-07T01:10:20;176.07;;;167.75;;
1140;SDS011;559;48.628;8.924;2023-04-07T01:12:53;177.48;;;169.07;;
1140;SDS011;559;48.628;8.924;2023-04-07T01:15:22;185.20;;;176.68;;
1140;SDS011;559;48.628;8.924;2023-04-07T01:17:54;197.50;;;188.40;;
1140;SDS011;559;48.628;8.924;2023-04-07T01:20:25;200.45;;;191.32;;
1140;SDS011;559;48.628;8.924;2023-04-07T01:23:00;191.52;;;182.82;;
1140;SDS011;559;48.628;8.924;2023-04-07T01:25:46;190.77;;;182.10;;
1140;SDS011;559;48.628;8.924;2023-04-07T01:28:30;184.98;;;176.13;;
1140;SDS011;559;48.628;8.924;2023-04-07T01:31:08;209.45;;;199.90;;
1140;SDS011;559;48.628;8.924;2023-04-07T01:33:36;205.57;;;196.20;;
1140;SDS011;559;48.628;8.924;2023-04-07T01:36:12;203.38;;;194.18;;
1140;SDS011;559;48.628;8.924;2023-04-07T01:38:42;209.65;;;199.95;;
1140;SDS011;559;48.628;8.924;2023-04-07T01:41:10;197.63;;;188.02;;
1140;SDS011;559;48.628;8.924;2023-04-07T01:43:38;205.73;;;196.10;;
1140;SDS011;559;48.628;8.924;2023-04-07T01:46:08;199.35;;;189.75;;
1140;SDS011;559;48.628;8.924;2023-04-07T01:48:36;191.15;;;181.98;;
1140;SDS011;559;48.628;8.924;2023-04-07T01:51:08;200.82;;;191.52;;
1140;SDS011;559;48.628;8.924;2023-04-07T01:53:41;187.80;;;179.10;;
1140;SDS011;559;48.628;8.924;2023-04-07T01:56:12;203.18;;;193.80;;
1140;SDS011;559;48.628;8.924;2023-04-07T01:58:41;198.48;;;189.30;;
1140;SDS011;559;48.628;8.924;2023-04-07T02:01:09;190.55;;;181.45;;
1140;SDS011;559;48.628;8.924;2023-04-07T02:03:38;191.25;;;182.30;;
1140;SDS011;559;48.628;8.924;2023-04-07T02:06:08;187.57;;;178.68;;
1140;SDS011;559;48.628;8.924;2023-04-07T02:08:41;188.48;;;179.98;;
1140;SDS011;559;48.628;8.924;2023-04-07T02:11:11;198.82;;;189.90;;
1140;SDS011;559;48.628;8.924;2023-04-07T02:13:39;195.50;;;186.50;;
1140;SDS011;559;48.628;8.924;2023-04-07T02:16:11;196.52;;;187.57;;
1140;SDS011;559;48.628;8.924;2023-04-07T02:18:39;189.82;;;181.23;;
1140;SDS011;559;48.628;8.924;2023-04-07T02:21:11;194.95;;;186.15;;
1140;SDS011;559;48.628;8.924;2023-04-07T02:23:41;192.75;;;184.02;;
1140;SDS011;559;48.628;8.924;2023-04-07T02:26:13;190.60;;;181.88;;
1140;SDS011;559;48.628;8.924;2023-04-07T02:28:42;181.52;;;173.18;;
1140;SDS011;559;48.628;8.924;2023-04-07T02:31:10;176.00;;;168.15;;
1140;SDS011;559;48.628;8.924;2023-04-07T02:33:37;182.93;;;174.45;;
1140;SDS011;559;48.628;8.924;2023-04-07T02:36:04;179.38;;;171.32;;
1140;SDS011;559;48.628;8.924;2023-04-07T02:38:31;174.70;;;166.82;;
1140;SDS011;559;48.628;8.924;2023-04-07T02:40:57;172.20;;;164.20;;
1140;SDS011;559;48.628;8.924;2023-04-07T02:43:25;177.32;;;169.55;;
1140;SDS011;559;48.628;8.924;2023-04-07T02:45:53;180.70;;;172.60;;
1140;SDS011;559;48.628;8.924;2023-04-07T02:48:28;183.75;;;175.75;;
1140;SDS011;559;48.628;8.924;2023-04-07T02:50:58;179.93;;;171.95;;
1140;SDS011;559;48.628;8.924;2023-04-07T02:53:29;176.25;;;168.25;;
1140;SDS011;559;48.628;8.924;2023-04-07T02:55:57;178.90;;;170.77;;
1140;SDS011;559;48.628;8.924;2023-04-07T02:58:27;176.10;;;168.40;;
1140;SDS011;559;48.628;8.924;2023-04-07T03:00:53;182.45;;;174.02;;
1140;SDS011;559;48.628;8.924;2023-04-07T03:03:20;181.15;;;173.07;;
1140;SDS011;559;48.628;8.924;2023-04-07T03:05:49;181.90;;;173.07;;
1140;SDS011;559;48.628;8.924;2023-04-07T03:08:15;167.18;;;159.68;;
1140;SDS011;559;48.628;8.924;2023-04-07T03:10:45;173.98;;;166.15;;
1140;SDS011;559;48.628;8.924;2023-04-07T03:13:14;173.82;;;166.02;;
1140;SDS011;559;48.628;8.924;2023-04-07T03:15:43;174.35;;;166.48;;
1140;SDS011;559;48.628;8.924;2023-04-07T03:18:11;171.20;;;163.32;;
1140;SDS011;559;48.628;8.924;2023-04-07T03:20:41;177.68;;;169.77;;
1140;SDS011;559;48.628;8.924;2023-04-07T03:23:13;172.95;;;165.25;;
1140;SDS011;559;48.628;8.924;2023-04-07T03:25:41;170.52;;;162.88;;
1140;SDS011;559;48.628;8.924;2023-04-07T03:28:08;167.85;;;160.10;;
1140;SDS011;559;48.628;8.924;2023-04-07T03:30:35;172.63;;;164.93;;
1140;SDS011;559;48.628;8.924;2023-04-07T03:33:03;172.07;;;164.23;;
1140;SDS011;559;48.628;8.924;2023-04-07T03:35:30;175.82;;;168.00;;
1140;SDS011;559;48.628;8.924;2023-04-07T03:37:56;173.10;;;165.18;;
1140;SDS011;559;48.628;8.924;2023-04-07T03:40:26;184.43;;;175.93;;
1140;SDS011;559;48.628;8.924;2023-04-07T03:42:55;179.43;;;171.13;;
1140;SDS011;559;48.628;8.924;2023-04-07T03:45:24;180.50;;;172.52;;
1140;SDS011;559;48.628;8.924;2023-04-07T03:47:51;180.00;;;172.00;;
1140;SDS011;559;48.628;8.924;2023-04-07T03:50:20;180.05;;;171.95;;
1140;SDS011;559;48.628;8.924;2023-04-07T03:52:50;186.07;;;177.98;;
1140;SDS011;559;48.628;8.924;2023-04-07T03:55:19;171.07;;;163.43;;
1140;SDS011;559;48.628;8.924;2023-04-07T03:57:54;167.23;;;159.60;;
1140;SDS011;559;48.628;8.924;2023-04-07T04:00:22;179.13;;;171.73;;
1140;SDS011;559;48.628;8.924;2023-04-07T04:02:51;171.63;;;164.23;;
1140;SDS011;559;48.628;8.924;2023-04-07T04:05:19;166.65;;;159.73;;
1140;SDS011;559;48.628;8.924;2023-04-07T04:07:47;169.52;;;162.35;;
1140;SDS011;559;48.628;8.924;2023-04-07T04:10:15;179.85;;;172.45;;
1140;SDS011;559;48.628;8.924;2023-04-07T04:12:43;182.80;;;175.05;;
1140;SDS011;559;48.628;8.924;2023-04-07T04:15:11;178.55;;;171.05;;
1140;SDS011;559;48.628;8.924;2023-04-07T04:17:39;183.90;;;176.30;;
1140;SDS011;559;48.628;8.924;2023-04-07T04:20:09;188.40;;;180.57;;
1140;SDS011;559;48.628;8.924;2023-04-07T04:22:36;197.25;;;188.95;;
1140;SDS011;559;48.628;8.924;2023-04-07T04:25:03;189.70;;;181.70;;
1140;SDS011;559;48.628;8.924;2023-04-07T04:27:32;198.18;;;189.77;;
1140;SDS011;559;48.628;8.924;2023-04-07T04:29:59;193.75;;;185.25;;
1140;SDS011;559;48.628;8.924;2023-04-07T04:32:27;205.25;;;196.32;;
1140;SDS011;559;48.628;8.924;2023-04-07T04:34:53;194.95;;;186.32;;
1140;SDS011;559;48.628;8.924;2023-04-07T04:37:20;204.60;;;195.90;;
1140;SDS011;559;48.628;8.924;2023-04-07T04:39:46;194.07;;;185.98;;
1140;SDS011;559;48.628;8.924;2023-04-07T04:42:13;197.68;;;188.90;;
1140;SDS011;559;48.628;8.924;2023-04-07T04:44:41;197.80;;;189.75;;
1140;SDS011;559;48.628;8.924;2023-04-07T04:47:10;202.45;;;194.40;;
1140;SDS011;559;48.628;8.924;2023-04-07T04:49:42;196.30;;;187.95;;
1140;SDS011;559;48.628;8.924;2023-04-07T04:52:09;199.02;;;190.82;;
1140;SDS011;559;48.628;8.924;2023-04-07T04:54:36;194.75;;;186.68;;
1140;SDS011;559;48.628;8.924;2023-04-07T04:57:02;182.75;;;174.75;;
1140;SDS011;559;48.628;8.924;2023-04-07T04:59:29;190.98;;;183.50;;
1140;SDS011;559;48.628;8.924;2023-04-07T05:01:56;187.07;;;179.48;;
1140;SDS011;559;48.628;8.924;2023-04-07T05:04:25;202.77;;;194.93;;
1140;SDS011;559;48.628;8.924;2023-04-07T05:06:53;196.82;;;188.93;;
1140;SDS011;559;48.628;8.924;2023-04-07T05:09:21;203.18;;;194.98;;
1140;SDS011;559;48.628;8.924;2023-04-07T05:11:47;206.27;;;197.88;;
1140;SDS011;559;48.628;8.924;2023-04-07T05:14:14;200.52;;;192.30;;
1140;SDS011;559;48.628;8.924;2023-04-07T05:16:40;193.35;;;185.68;;
1140;SDS011;559;48.628;8.924;2023-04-07T05:19:07;195.25;;;187.60;;
1140;SDS011;559;48.628;8.924;2023-04-07T05:21:33;194.90;;;187.00;;
1140;SDS011;559;48.628;8.924;2023-04-07T05:24:01;193.77;;;185.85;;
1140;SDS011;559;48.628;8.924;2023-04-07T05:26:28;194.88;;;186.98;;
1140;SDS011;559;48.628;8.924;2023-04-07T05:28:55;195.27;;;187.13;;
1140;SDS011;559;48.628;8.924;2023-04-07T05:31:21;201.73;;;193.55;;
1140;SDS011;559;48.628;8.924;2023-04-07T05:33:48;200.70;;;192.60;;
1140;SDS011;559;48.628;8.924;2023-04-07T05:36:15;205.27;;;196.80;;
1140;SDS011;559;48.628;8.924;2023-04-07T05:38:42;193.27;;;185.07;;
1140;SDS011;559;48.628;8.924;2023-04-07T05:41:09;203.57;;;195.02;;
1140;SDS011;559;48.628;8.924;2023-04-07T05:43:37;197.65;;;189.35;;
1140;SDS011;559;48.628;8.924;2023-04-07T05:46:03;202.30;;;192.98;;
1140;SDS011;559;48.628;8.924;2023-04-07T05:48:30;217.40;;;208.10;;
1140;SDS011;559;48.628;8.924;2023-04-07T05:50:56;231.85;;;221.95;;
1140;SDS011;559;48.628;8.924;2023-04-07T05:53:24;249.38;;;238.88;;
1140;SDS011;559;48.628;8.924;2023-04-07T05:55:51;250.48;;;239.60;;
1140;SDS011;559;48.628;8.924;2023-04-07T05:58:19;229.38;;;219.18;;
1140;SDS011;559;48.628;8.924;2023-04-07T06:00:45;224.48;;;214.38;;
1140;SDS011;559;48.628;8.924;2023-04-07T06:03:12;216.10;;;206.05;;
1140;SDS011;559;48.628;8.924;2023-04-07T06:05:39;210.70;;;200.95;;
1140;SDS011;559;48.628;8.924;2023-04-07T06:08:07;212.80;;;202.90;;
1140;SDS011;559;48.628;8.924;2023-04-07T06:10:34;205.45;;;196.07;;
1140;SDS011;559;48.628;8.924;2023-04-07T06:13:00;218.00;;;208.10;;
1140;SDS011;559;48.628;8.924;2023-04-07T06:15:28;212.13;;;202.40;;
1140;SDS011;559;48.628;8.924;2023-04-07T06:17:55;209.63;;;200.15;;
1140;SDS011;559;48.628;8.924;2023-04-07T06:20:21;197.70;;;188.60;;
1140;SDS011;559;48.628;8.924;2023-04-07T06:22:48;191.18;;;182.75;;
1140;SDS011;559;48.628;8.924;2023-04-07T06:25:14;190.27;;;181.57;;
1140;SDS011;559;48.628;8.924;2023-04-07T06:27:41;179.05;;;170.95;;
1140;SDS011;559;48.628;8.924;2023-04-07T06:30:08;182.23;;;173.77;;
1140;SDS011;559;48.628;8.924;2023-04-07T06:32:37;171.32;;;163.82;;
1140;SDS011;559;48.628;8.924;2023-04-07T06:35:05;171.32;;;163.13;;
1140;SDS011;559;48.628;8.924;2023-04-07T06:37:32;176.68;;;168.95;;
1140;SDS011;559;48.628;8.924;2023-04-07T06:39:58;169.95;;;162.35;;
1140;SDS011;559;48.628;8.924;2023-04-07T06:42:25;166.02;;;158.75;;
1140;SDS011;559;48.628;8.924;2023-04-07T06:44:52;163.18;;;155.98;;
1140;SDS011;559;48.628;8.924;2023-04-07T06:47:20;167.20;;;159.82;;
1140;SDS011;559;48.628;8.924;2023-04-07T06:49:47;160.57;;;154.07;;
1140;SDS011;559;48.628;8.924;2023-04-07T06:52:14;153.27;;;146.88;;
1140;SDS011;559;48.628;8.924;2023-04-07T06:54:40;149.10;;;143.20;;
1140;SDS011;559;48.628;8.924;2023-04-07T06:57:07;129.05;;;124.05;;
1140;SDS011;559;48.628;8.924;2023-04-07T06:59:36;136.15;;;131.32;;
1140;SDS011;559;48.628;8.924;2023-04-07T07:02:02;128.07;;;123.57;;
1140;SDS011;559;48.628;8.924;2023-04-07T07:04:29;125.25;;;120.63;;
1140;SDS011;559;48.628;8.924;2023-04-07T07:06:57;125.32;;;120.95;;
1140;SDS011;559;48.628;8.924;2023-04-07T07:09:23;127.80;;;123.00;;
1140;SDS011;559;48.628;8.924;2023-04-07T07:11:51;134.90;;;129.93;;
1140;SDS011;559;48.628;8.924;2023-04-07T07:14:17;130.15;;;125.57;;
1140;SDS011;559;48.628;8.924;2023-04-07T07:16:44;131.65;;;126.95;;
1140;SDS011;559;48.628;8.924;2023-04-07T07:19:10;136.13;;;131.32;;
1140;SDS011;559;48.628;8.924;2023-04-07T07:21:38;136.13;;;131.27;;
1140;SDS011;559;48.628;8.924;2023-04-07T07:24:06;129.50;;;124.85;;
1140;SDS011;559;48.628;8.924;2023-04-07T07:26:32;128.35;;;124.05;;
1140;SDS011;559;48.628;8.924;2023-04-07T07:28:59;126.93;;;122.70;;
1140;SDS011;559;48.628;8.924;2023-04-07T07:31:25;112.97;;;109.18;;
1140;SDS011;559;48.628;8.924;2023-04-07T07:33:52;112.30;;;108.55;;
1140;SDS011;559;48.628;8.924;2023-04-07T07:36:18;110.93;;;107.32;;
1140;SDS011;559;48.628;8.924;2023-04-07T07:38:45;106.90;;;103.25;;
1140;SDS011;559;48.628;8.924;2023-04-07T07:41:13;105.25;;;101.60;;
1140;SDS011;559;48.628;8.924;2023-04-07T07:43:39;100.00;;;96.78;;
1140;SDS011;559;48.628;8.924;2023-04-07T07:46:07;99.03;;;95.72;;
1140;SDS011;559;48.628;8.924;2023-04-07T07:48:34;99.22;;;95.82;;
1140;SDS011;559;48.628;8.924;2023-04-07T07:51:00;94.07;;;90.78;;
1140;SDS011;559;48.628;8.924;2023-04-07T07:53:27;76.95;;;74.55;;
1140;SDS011;559;48.628;8.924;2023-04-07T07:55:53;72.60;;;70.15;;
1140;SDS011;559;48.628;8.924;2023-04-07T07:58:22;71.57;;;68.93;;
1140;SDS011;559;48.628;8.924;2023-04-07T08:00:48;65.13;;;62.97;;
1140;SDS011;559;48.628;8.924;2023-04-07T08:03:15;85.68;;;82.68;;
1140;SDS011;559;48.628;8.924;2023-04-07T08:05:43;71.55;;;69.22;;
1140;SDS011;559;48.628;8.924;2023-04-07T08:08:10;59.40;;;57.38;;
1140;SDS011;559;48.628;8.924;2023-04-07T08:10:36;61.33;;;59.28;;
1140;SDS011;559;48.628;8.924;2023-04-07T08:13:03;73.45;;;71.13;;
1140;SDS011;559;48.628;8.924;2023-04-07T08:15:31;67.97;;;65.78;;
1140;SDS011;559;48.628;8.924;2023-04-07T08:17:57;74.22;;;71.72;;
1140;SDS011;559;48.628;8.924;2023-04-07T08:20:25;75.55;;;73.15;;
1140;SDS011;559;48.628;8.924;2023-04-07T08:22:51;66.38;;;63.95;;
1140;SDS011;559;48.628;8.924;2023-04-07T08:25:18;59.15;;;57.30;;
1140;SDS011;559;48.628;8.924;2023-04-07T08:27:44;49.47;;;47.78;;
1140;SDS011;559;48.628;8.924;2023-04-07T08:30:11;33.15;;;31.85;;
1140;SDS011;559;48.628;8.924;2023-04-07T08:32:39;38.35;;;37.00;;
1140;SDS011;559;48.628;8.924;2023-04-07T08:35:07;38.85;;;37.65;;
1140;SDS011;559;48.628;8.924;2023-04-07T08:37:34;49.05;;;47.55;;
1140;SDS011;559;48.628;8.924;2023-04-07T08:40:01;39.40;;;38.00;;
1140;SDS011;559;48.628;8.924;2023-04-07T08:42:29;32.75;;;31.35;;
1140;SDS011;559;48.628;8.924;2023-04-07T08:44:57;31.25;;;30.05;;
1140;SDS011;559;48.628;8.924;2023-04-07T08:47:24;33.72;;;32.22;;
1140;SDS011;559;48.628;8.924;2023-04-07T08:49:53;38.55;;;37.15;;
1140;SDS011;559;48.628;8.924;2023-04-07T08:52:22;37.75;;;36.35;;
1140;SDS011;559;48.628;8.924;2023-04-07T08:54:52;53.78;;;51.92;;
1140;SDS011;559;48.628;8.924;2023-04-07T08:57:20;66.82;;;64.63;;
1140;SDS011;559;48.628;8.924;2023-04-07T08:59:46;65.40;;;63.30;;
1140;SDS011;559;48.628;8.924;2023-04-07T09:02:15;99.90;;;96.90;;
1140;SDS011;559;48.628;8.924;2023-04-07T09:04:42;85.00;;;82.45;;
1140;SDS011;559;48.628;8.924;2023-04-07T09:07:11;105.38;;;102.10;;
1140;SDS011;559;48.628;8.924;2023-04-07T09:09:37;91.55;;;88.85;;
1140;SDS011;559;48.628;8.924;2023-04-07T09:12:04;71.95;;;69.65;;
1140;SDS011;559;48.628;8.924;2023-04-07T09:14:30;61.40;;;59.50;;
1140;SDS011;559;48.628;8.924;2023-04-07T09:16:57;45.65;;;44.00;;
1140;SDS011;559;48.628;8.924;2023-04-07T09:19:25;42.20;;;40.70;;
1140;SDS011;559;48.628;8.924;2023-04-07T09:21:52;56.25;;;54.45;;
1140;SDS011;559;48.628;8.924;2023-04-07T09:24:24;53.70;;;51.70;;
1140;SDS011;559;48.628;8.924;2023-04-07T09:27:00;43.55;;;42.15;;
1140;SDS011;559;48.628;8.924;2023-04-07T09:29:34;31.08;;;29.88;;
1140;SDS011;559;48.628;8.924;2023-04-07T09:32:00;22.38;;;21.35;;
1140;SDS011;559;48.628;8.924;2023-04-07T09:34:27;12.35;;;11.45;;
1140;SDS011;559;48.628;8.924;2023-04-07T09:36:55;19.80;;;18.90;;
1140;SDS011;559;48.628;8.924;2023-04-07T09:39:23;12.52;;;11.60;;
1140;SDS011;559;48.628;8.924;2023-04-07T09:41:50;17.98;;;17.08;;
1140;SDS011;559;48.628;8.924;2023-04-07T09:44:17;17.70;;;16.98;;
1140;SDS011;559;48.628;8.924;2023-04-07T09:46:47;27.42;;;26.10;;
1140;SDS011;559;48.628;8.924;2023-04-07T09:49:14;34.38;;;33.28;;
1140;SDS011;559;48.628;8.924;2023-04-07T09:51:51;60.73;;;59.03;;
1140;SDS011;559;48.628;8.924;2023-04-07T09:54:35;44.67;;;43.40;;
1140;SDS011;559;48.628;8.924;2023-04-07T09:57:02;48.42;;;46.88;;
1140;SDS011;559;48.628;8.924;2023-04-07T09:59:30;39.22;;;37.85;;
1140;SDS011;559;48.628;8.924;2023-04-07T10:01:57;39.65;;;38.38;;
1140;SDS011;559;48.628;8.924;2023-04-07T10:04:24;29.85;;;28.85;;
1140;SDS011;559;48.628;8.924;2023-04-07T10:06:53;38.83;;;37.25;;
1140;SDS011;559;48.628;8.924;2023-04-07T10:09:19;50.55;;;48.75;;
1140;SDS011;559;48.628;8.924;2023-04-07T10:11:48;82.03;;;79.50;;
1140;SDS011;559;48.628;8.924;2023-04-07T10:14:15;101.13;;;97.95;;
1140;SDS011;559;48.628;8.924;2023-04-07T10:16:43;124.55;;;120.05;;
1140;SDS011;559;48.628;8.924;2023-04-07T10:19:10;141.90;;;136.95;;
1140;SDS011;559;48.628;8.924;2023-04-07T10:21:37;149.27;;;143.68;;
1140;SDS011;559;48.628;8.924;2023-04-07T10:24:08;172.70;;;165.82;;
1140;SDS011;559;48.628;8.924;2023-04-07T10:26:44;167.95;;;161.07;;
1140;SDS011;559;48.628;8.924;2023-04-07T10:29:14;168.55;;;161.85;;
1140;SDS011;559;48.628;8.924;2023-04-07T10:31:42;167.13;;;160.30;;
1140;SDS011;559;48.628;8.924;2023-04-07T10:34:08;166.45;;;159.65;;
1140;SDS011;559;48.628;8.924;2023-04-07T10:36:35;160.07;;;153.57;;
1140;SDS011;559;48.628;8.924;2023-04-07T10:39:18;164.55;;;158.05;;
1140;SDS011;559;48.628;8.924;2023-04-07T10:41:45;157.32;;;150.77;;
1140;SDS011;559;48.628;8.924;2023-04-07T10:47:17;156.35;;;150.25;;
1140;SDS011;559;48.628;8.924;2023-04-07T10:52:42;154.15;;;147.98;;
1140;SDS011;559;48.628;8.924;2023-04-07T10:58:14;154.57;;;148.63;;
1140;SDS011;559;48.628;8.924;2023-04-07T11:01:14;162.65;;;155.75;;
1140;SDS011;559;48.628;8.924;2023-04-07T11:03:51;160.05;;;153.60;;
1140;SDS011;559;48.628;8.924;2023-04-07T11:06:19;163.20;;;156.60;;
1140;SDS011;559;48.628;8.924;2023-04-07T11:08:46;170.25;;;163.18;;
1140;SDS011;559;48.628;8.924;2023-04-07T11:11:14;160.38;;;153.40;;
1140;SDS011;559;48.628;8.924;2023-04-07T11:13:42;158.48;;;151.65;;
1140;SDS011;559;48.628;8.924;2023-04-07T11:16:11;148.43;;;142.07;;
1140;SDS011;559;48.628;8.924;2023-04-07T11:18:38;149.05;;;143.15;;
1140;SDS011;559;48.628;8.924;2023-04-07T11:21:06;161.43;;;154.68;;
1140;SDS011;559;48.628;8.924;2023-04-07T11:23:36;152.30;;;145.82;;
1140;SDS011;559;48.628;8.924;2023-04-07T11:26:03;149.75;;;143.55;;
1140;SDS011;559;48.628;8.924;2023-04-07T11:28:30;151.10;;;145.10;;
1140;SDS011;559;48.628;8.924;2023-04-07T11:30:57;156.15;;;149.95;;
1140;SDS011;559;48.628;8.924;2023-04-07T11:33:25;158.77;;;152.07;;
1140;SDS011;559;48.628;8.924;2023-04-07T11:35:54;146.63;;;140.63;;
1140;SDS011;559;48.628;8.924;2023-04-07T11:38:22;152.48;;;146.38;;
1140;SDS011;559;48.628;8.924;2023-04-07T11:40:49;159.82;;;153.40;;
1140;SDS011;559;48.628;8.924;2023-04-07T11:43:17;151.38;;;145.57;;
1140;SDS011;559;48.628;8.924;2023-04-07T11:45:45;159.65;;;153.00;;
1140;SDS011;559;48.628;8.924;2023-04-07T11:48:32;154.55;;;147.75;;
1140;SDS011;559;48.628;8.924;2023-04-07T11:51:00;158.85;;;152.15;;
1140;SDS011;559;48.628;8.924;2023-04-07T11:53:27;159.98;;;152.77;;
1140;SDS011;559;48.628;8.924;2023-04-07T11:55:58;158.40;;;151.05;;
1140;SDS011;559;48.628;8.924;2023-04-07T11:58:28;160.32;;;153.32;;
1140;SDS011;559;48.628;8.924;2023-04-07T12:00:54;164.52;;;157.32;;
1140;SDS011;559;48.628;8.924;2023-04-07T12:03:21;161.88;;;154.57;;
1140;SDS011;559;48.628;8.924;2023-04-07T12:05:50;164.40;;;156.80;;
1140;SDS011;559;48.628;8.924;2023-04-07T12:08:16;159.80;;;152.60;;
1140;SDS011;559;48.628;8.924;2023-04-07T12:10:44;158.63;;;151.25;;
1140;SDS011;559;48.628;8.924;2023-04-07T12:13:11;155.20;;;148.50;;
1140;SDS011;559;48.628;8.924;2023-04-07T12:15:39;160.93;;;153.77;;
1140;SDS011;559;48.628;8.924;2023-04-07T12:18:05;149.57;;;142.82;;
1140;SDS011;559;48.628;8.924;2023-04-07T12:20:32;136.65;;;130.93;;
1140;SDS011;559;48.628;8.924;2023-04-07T12:23:00;138.68;;;133.20;;
1140;SDS011;559;48.628;8.924;2023-04-07T12:25:26;149.98;;;143.57;;
1140;SDS011;559;48.628;8.924;2023-04-07T12:27:53;143.10;;;137.32;;
1140;SDS011;559;48.628;8.924;2023-04-07T12:30:19;146.07;;;139.77;;
1140;SDS011;559;48.628;8.924;2023-04-07T12:32:46;150.40;;;144.30;;
1140;SDS011;559;48.628;8.924;2023-04-07T12:35:13;148.00;;;142.10;;
1140;SDS011;559;48.628;8.924;2023-04-07T12:37:39;143.20;;;137.50;;
1140;SDS011;559;48.628;8.924;2023-04-07T12:40:08;141.73;;;136.27;;
1140;SDS011;559;48.628;8.924;2023-04-07T12:42:35;148.77;;;142.88;;
1140;SDS011;559;48.628;8.924;2023-04-07T12:45:01;158.43;;;151.77;;
1140;SDS011;559;48.628;8.924;2023-04-07T12:47:28;166.82;;;158.85;;
1140;SDS011;559;48.628;8.924;2023-04-07T12:49:55;170.63;;;162.80;;
1140;SDS011;559;48.628;8.924;2023-04-07T12:52:21;173.13;;;164.80;;
1140;SDS011;559;48.628;8.924;2023-04-07T12:54:48;180.43;;;171.75;;
1140;SDS011;559;48.628;8.924;2023-04-07T12:57:16;168.90;;;160.80;;
1140;SDS011;559;48.628;8.924;2023-04-07T12:59:42;171.30;;;163.48;;
1140;SDS011;559;48.628;8.924;2023-04-07T13:02:09;165.50;;;157.55;;
1140;SDS011;559;48.628;8.924;2023-04-07T13:04:37;178.35;;;169.95;;
1140;SDS011;559;48.628;8.924;2023-04-07T13:07:04;178.60;;;169.98;;
1140;SDS011;559;48.628;8.924;2023-04-07T13:09:32;188.20;;;178.95;;
1140;SDS011;559;48.628;8.924;2023-04-07T13:11:58;178.85;;;170.15;;
1140;SDS011;559;48.628;8.924;2023-04-07T13:14:26;176.20;;;167.27;;
1140;SDS011;559;48.628;8.924;2023-04-07T13:16:53;188.40;;;179.40;;
1140;SDS011;559;48.628;8.924;2023-04-07T13:19:20;190.07;;;181.07;;
1140;SDS011;559;48.628;8.924;2023-04-07T13:21:46;175.55;;;167.15;;
1140;SDS011;559;48.628;8.924;2023-04-07T13:24:13;179.15;;;170.60;;
1140;SDS011;559;48.628;8.924;2023-04-07T13:26:39;185.93;;;176.95;;
1140;SDS011;559;48.628;8.924;2023-04-07T13:29:06;185.05;;;176.05;;
1140;SDS011;559;48.628;8.924;2023-04-07T13:31:34;166.68;;;158.65;;
1140;SDS011;559;48.628;8.924;2023-04-07T13:34:00;171.68;;;163.57;;
1140;SDS011;559;48.628;8.924;2023-04-07T13:36:27;172.07;;;163.77;;
1140;SDS011;559;48.628;8.924;2023-04-07T13:38:54;172.10;;;163.50;;
1140;SDS011;559;48.628;8.924;2023-04-07T13:41:21;174.68;;;165.98;;
1140;SDS011;559;48.628;8.924;2023-04-07T13:43:48;178.65;;;169.02;;
1140;SDS011;559;48.628;8.924;2023-04-07T13:46:14;176.20;;;167.23;;
1140;SDS011;559;48.628;8.924;2023-04-07T13:48:43;179.25;;;170.45;;
1140;SDS011;559;48.628;8.924;2023-04-07T13:51:10;169.02;;;160.60;;
1140;SDS011;559;48.628;8.924;2023-04-07T13:53:37;177.60;;;168.93;;
1140;SDS011;559;48.628;8.924;2023-04-07T13:56:03;178.98;;;170.18;;
1140;SDS011;559;48.628;8.924;2023-04-07T13:58:32;187.50;;;178.63;;
1140;SDS011;559;48.628;8.924;2023-04-07T14:00:59;188.05;;;178.98;;
1140;SDS011;559;48.628;8.924;2023-04-07T14:03:25;167.45;;;159.50;;
1140;SDS011;559;48.628;8.924;2023-04-07T14:05:54;168.45;;;160.45;;
1140;SDS011;559;48.628;8.924;2023-04-07T14:08:24;161.57;;;154.18;;
1140;SDS011;559;48.628;8.924;2023-04-07T14:10:51;175.30;;;167.20;;
1140;SDS011;559;48.628;8.924;2023-04-07T14:13:17;169.30;;;161.40;;
1140;SDS011;559;48.628;8.924;2023-04-07T14:15:44;170.50;;;162.43;;
1140;SDS011;559;48.628;8.924;2023-04-07T14:18:10;168.82;;;160.82;;
1140;SDS011;559;48.628;8.924;2023-04-07T14:20:37;162.90;;;155.10;;
1140;SDS011;559;48.628;8.924;2023-04-07T14:23:05;156.82;;;149.52;;
1140;SDS011;559;48.628;8.924;2023-04-07T14:25:31;159.57;;;151.98;;
1140;SDS011;559;48.628;8.924;2023-04-07T14:27:58;154.65;;;147.15;;
1140;SDS011;559;48.628;8.924;2023-04-07T14:30:24;161.32;;;153.88;;
1140;SDS011;559;48.628;8.924;2023-04-07T14:32:51;161.93;;;154.50;;
1140;SDS011;559;48.628;8.924;2023-04-07T14:35:17;155.98;;;148.60;;
1140;SDS011;559;48.628;8.924;2023-04-07T14:37:44;158.25;;;150.95;;
1140;SDS011;559;48.628;8.924;2023-04-07T14:40:12;158.70;;;151.40;;
1140;SDS011;559;48.628;8.924;2023-04-07T14:42:38;164.60;;;156.93;;
1140;SDS011;559;48.628;8.924;2023-04-07T14:45:05;158.80;;;151.35;;
1140;SDS011;559;48.628;8.924;2023-04-07T14:47:33;147.48;;;140.70;;
1140;SDS011;559;48.628;8.924;2023-04-07T14:49:59;160.90;;;153.43;;
1140;SDS011;559;48.628;8.924;2023-04-07T14:52:25;162.60;;;154.98;;